Gentry, Arkansas
Current Conditions -  °F | °C
As of 10:15 AM on Sunday 23 Nov 2014 (Local Time) from KSLG Reporting Station
Overcast Overcast  
Wind Chill: 61°   Ceiling: 2000
Heat Index: 61°   Visibility: 10mi
Dew Point: 52°   Wind: 14mph
Humidity: 72%   Direction: 170°S
Pressure: 29.49"   Gusts: NA
Location:  36.27°N, 94.48°W
Report Text: KSLG 231615Z AUTO 17012KT 10SM SCT014 OVC020 16/11 A2949 RMK AO1
Loading
Personal Weather Stations






























Interactive Weather Map New forecast layout! Learn more

10-Day Weather Forecast

Advertisements
Track Severe Weather on mobile